createdAt,value
2022-09-22T00:00:32.862Z,99043.56
2022-09-22T00:03:05.191Z,99044.81
2022-09-22T00:05:35.143Z,99046.97
2022-09-22T00:08:05.363Z,99045.53
2022-09-22T00:10:35.017Z,99041.88
2022-09-22T00:13:04.715Z,99045.13
2022-09-22T00:15:35.026Z,99051.28
2022-09-22T00:18:07.301Z,99047.19
2022-09-22T00:20:36.976Z,99034.25
2022-09-22T00:23:06.624Z,99035.97
2022-09-22T00:25:36.318Z,99041.19
2022-09-22T00:28:06.017Z,99035.16
2022-09-22T00:30:35.835Z,99030.97
2022-09-22T00:33:08.070Z,99031.22
2022-09-22T00:35:38.564Z,99028.22
2022-09-22T00:38:08.803Z,99020.41
2022-09-22T00:40:39.959Z,99019.28
2022-09-22T00:43:19.270Z,99019.38
2022-09-22T00:45:52.021Z,99016.44
2022-09-22T00:48:29.797Z,99022.34
2022-09-22T00:51:02.187Z,99024.72
2022-09-22T00:53:32.417Z,99019.63
2022-09-22T00:56:06.610Z,99006.53
2022-09-22T00:58:41.012Z,99009.38
2022-09-22T01:01:11.001Z,99010.63
2022-09-22T01:03:44.031Z,99016.63
2022-09-22T01:06:18.023Z,99013.25
2022-09-22T01:08:48.887Z,99017.19
2022-09-22T01:11:20.927Z,99011.66
2022-09-22T01:13:58.072Z,99017.56
2022-09-22T01:16:43.073Z,99017.78
2022-09-22T01:19:37.046Z,99008.59
2022-09-22T01:22:20.675Z,99013.56
2022-09-22T01:25:10.007Z,99011.06
2022-09-22T01:28:08.657Z,99017.03
2022-09-22T01:30:47.502Z,99018.22
2022-09-22T01:33:38.370Z,99011.75
2022-09-22T01:36:27.679Z,99015.81
2022-09-22T01:39:08.304Z,99011.97
2022-09-22T01:41:53.010Z,99014.66
2022-09-22T01:44:30.274Z,99009.00
2022-09-22T01:47:08.212Z,99010.69
2022-09-22T01:49:43.743Z,99009.25
2022-09-22T01:52:20.932Z,99005.50
2022-09-22T01:54:57.201Z,99010.59
2022-09-22T01:57:33.735Z,99011.38
2022-09-22T02:00:07.754Z,99007.50
2022-09-22T02:02:45.315Z,99006.13
2022-09-22T02:05:20.099Z,99009.34
2022-09-22T02:07:54.260Z,99014.31
2022-09-22T02:10:28.603Z,99017.38
2022-09-22T02:12:58.275Z,99013.94
2022-09-22T02:15:40.473Z,99008.50
2022-09-22T02:18:17.673Z,99006.53
2022-09-22T02:20:47.942Z,99001.38
2022-09-22T02:23:17.707Z,99009.16
2022-09-22T02:25:48.958Z,98997.88
2022-09-22T02:28:21.644Z,99000.97
2022-09-22T02:31:17.875Z,98995.50
2022-09-22T02:33:47.658Z,98990.72
2022-09-22T02:36:36.777Z,98984.78
2022-09-22T02:39:11.961Z,98988.50
2022-09-22T02:41:53.007Z,98978.28
2022-09-22T02:44:26.836Z,98984.78
2022-09-22T02:47:02.582Z,98986.63
2022-09-22T02:49:36.217Z,98988.47
2022-09-22T02:52:11.905Z,98986.63
2022-09-22T02:54:41.844Z,98983.53
2022-09-22T02:57:13.160Z,98990.78
2022-09-22T02:59:42.846Z,98989.19
2022-09-22T03:02:15.598Z,98988.41
2022-09-22T03:04:47.914Z,98987.69
2022-09-22T03:07:17.622Z,98987.97
2022-09-22T03:09:47.382Z,98986.25
2022-09-22T03:12:17.218Z,98986.94
2022-09-22T03:14:46.967Z,98987.69
2022-09-22T03:17:16.580Z,98984.50
2022-09-22T03:19:48.989Z,98981.19
2022-09-22T03:22:18.701Z,98979.63
2022-09-22T03:24:48.560Z,98982.91
2022-09-22T03:27:18.252Z,98983.72
2022-09-22T03:29:47.877Z,98985.25
2022-09-22T03:32:17.608Z,98984.00
2022-09-22T03:34:49.812Z,98982.66
2022-09-22T03:37:20.156Z,98981.53
2022-09-22T03:39:49.785Z,98980.28
2022-09-22T03:42:19.813Z,98975.63
2022-09-22T03:44:49.509Z,98973.63
2022-09-22T03:47:20.051Z,98978.28
2022-09-22T03:49:52.377Z,98975.44
2022-09-22T03:52:22.105Z,98975.16
2022-09-22T03:54:52.333Z,98970.13
2022-09-22T03:57:22.037Z,98967.81
2022-09-22T03:59:52.549Z,98967.22
2022-09-22T04:02:22.298Z,98968.59
2022-09-22T04:04:54.644Z,98964.63
2022-09-22T04:07:24.368Z,98973.06
2022-09-22T04:09:54.914Z,98966.88
2022-09-22T04:12:24.656Z,98958.13
2022-09-22T04:14:54.339Z,98962.03
2022-09-22T04:17:23.990Z,98966.28
2022-09-22T04:19:56.817Z,98960.91
2022-09-22T04:22:26.499Z,98963.63
2022-09-22T04:24:56.233Z,98962.81
2022-09-22T04:27:26.490Z,98966.75
2022-09-22T04:29:56.183Z,98968.31
2022-09-22T04:32:25.911Z,98971.19
2022-09-22T04:34:58.162Z,98971.00
2022-09-22T04:37:27.805Z,98965.53
2022-09-22T04:39:57.503Z,98982.28
2022-09-22T04:42:27.217Z,98971.47
2022-09-22T04:45:02.137Z,98975.84
2022-09-22T04:47:32.491Z,98983.66
2022-09-22T04:50:04.886Z,98977.22
2022-09-22T04:52:34.670Z,98975.34
2022-09-22T04:55:04.425Z,98966.00
2022-09-22T04:57:34.209Z,98971.78
2022-09-22T05:00:04.318Z,98968.28
2022-09-22T05:02:34.276Z,98970.34
2022-09-22T05:05:08.461Z,98966.06
2022-09-22T05:07:38.178Z,98972.75
2022-09-22T05:10:09.133Z,98976.25
2022-09-22T05:12:41.969Z,98978.84
2022-09-22T05:15:14.183Z,98977.84
2022-09-22T05:17:49.042Z,98981.63
2022-09-22T05:20:22.647Z,98982.53
2022-09-22T05:22:52.649Z,98982.84
2022-09-22T05:25:23.198Z,98985.97
2022-09-22T05:27:54.833Z,98984.63
2022-09-22T05:30:26.877Z,98995.03
2022-09-22T05:32:56.876Z,98996.94
2022-09-22T05:35:34.328Z,98999.06
2022-09-22T05:38:06.303Z,98999.72
2022-09-22T05:40:36.253Z,98996.09
2022-09-22T05:43:06.054Z,98999.00
2022-09-22T05:45:35.864Z,98997.13
2022-09-22T05:48:05.509Z,98996.47
2022-09-22T05:50:38.132Z,98996.47
2022-09-22T05:53:09.467Z,98996.34
2022-09-22T05:55:40.833Z,98988.97
2022-09-22T05:58:12.098Z,98994.91
2022-09-22T06:00:42.235Z,98993.09
2022-09-22T06:03:12.061Z,98998.72
2022-09-22T06:05:44.423Z,98995.38
2022-09-22T06:08:14.108Z,98991.81
2022-09-22T06:10:45.344Z,98997.91
2022-09-22T06:13:15.283Z,99000.06
2022-09-22T06:15:49.066Z,99002.91
2022-09-22T06:18:24.402Z,99003.09
2022-09-22T06:20:57.423Z,99011.66
2022-09-22T06:23:28.671Z,99002.25
2022-09-22T06:26:01.568Z,99006.84
2022-09-22T06:28:31.472Z,99008.97
2022-09-22T06:31:01.432Z,99007.28
2022-09-22T06:33:31.386Z,99004.72
2022-09-22T06:36:04.307Z,98996.22
2022-09-22T06:38:34.771Z,99002.06
2022-09-22T06:41:07.009Z,98997.91
2022-09-22T06:43:38.151Z,99002.09
2022-09-22T06:46:13.798Z,98993.38
2022-09-22T06:48:43.605Z,98990.16
2022-09-22T06:51:17.853Z,98996.22
2022-09-22T06:53:51.795Z,98988.22
2022-09-22T06:56:23.735Z,98992.47
2022-09-22T06:59:09.529Z,98984.91
2022-09-22T07:01:46.294Z,98985.38
2022-09-22T07:04:17.908Z,98981.13
2022-09-22T07:06:50.505Z,98984.84
2022-09-22T07:09:20.257Z,98979.59
2022-09-22T07:11:50.384Z,98985.13
2022-09-22T07:14:22.537Z,98983.69
2022-09-22T07:16:52.645Z,98980.34
2022-09-22T07:19:22.402Z,98982.94
2022-09-22T07:21:54.690Z,98982.56
2022-09-22T07:24:24.496Z,98986.31
2022-09-22T07:26:54.122Z,98988.31
2022-09-22T07:29:23.916Z,98979.50
2022-09-22T07:31:53.911Z,98982.88
2022-09-22T07:34:23.650Z,98980.03
2022-09-22T07:36:55.993Z,98981.47
2022-09-22T07:39:26.052Z,98979.75
2022-09-22T07:41:55.690Z,98977.34
2022-09-22T07:44:41.007Z,98982.09
2022-09-22T07:47:14.013Z,98987.41
2022-09-22T07:49:45.102Z,98982.81
2022-09-22T07:52:17.513Z,98986.44
2022-09-22T07:54:47.224Z,98979.59
2022-09-22T07:57:17.007Z,98987.09
2022-09-22T07:59:46.858Z,98978.47
2022-09-22T08:02:16.847Z,98978.59
2022-09-22T08:04:46.638Z,98977.88
2022-09-22T08:07:18.968Z,98980.31
2022-09-22T08:09:48.755Z,98968.25
2022-09-22T08:12:18.469Z,98968.19
2022-09-22T08:14:48.157Z,98974.63
2022-09-22T08:17:17.981Z,98964.03
2022-09-22T08:19:47.771Z,98964.00
2022-09-22T08:22:20.642Z,98957.13
2022-09-22T08:24:50.337Z,98955.31
2022-09-22T08:27:20.232Z,98958.13
2022-09-22T08:29:50.134Z,98953.97
2022-09-22T08:32:20.035Z,98954.44
2022-09-22T08:34:51.559Z,98947.41
2022-09-22T08:37:24.367Z,98947.38
2022-09-22T08:39:54.060Z,98949.56
2022-09-22T08:42:25.651Z,98950.50
2022-09-22T08:45:02.963Z,98950.94
2022-09-22T08:47:51.168Z,98950.22
2022-09-22T08:50:42.276Z,98944.25
2022-09-22T08:53:19.313Z,98941.91
2022-09-22T08:55:53.704Z,98944.78
2022-09-22T08:58:37.376Z,98949.91
2022-09-22T09:01:19.716Z,98950.72
2022-09-22T09:03:58.507Z,98949.53
2022-09-22T09:06:38.204Z,98942.06
2022-09-22T09:09:28.305Z,98952.34
2022-09-22T09:12:09.512Z,98939.72
2022-09-22T09:14:55.606Z,98957.09
2022-09-22T09:17:29.077Z,98945.22
2022-09-22T09:20:04.770Z,98938.56
2022-09-22T09:22:43.699Z,98948.41
2022-09-22T09:25:25.205Z,98953.47
2022-09-22T09:28:00.895Z,98946.41
2022-09-22T09:30:39.648Z,98938.97
2022-09-22T09:33:19.956Z,98938.56
2022-09-22T09:35:53.163Z,98937.72
2022-09-22T09:38:30.376Z,98936.50
2022-09-22T09:41:15.600Z,98930.22
2022-09-22T09:43:45.864Z,98935.75
2022-09-22T09:46:24.912Z,98932.53
2022-09-22T09:49:09.081Z,98933.31
2022-09-22T09:51:42.448Z,98930.13
2022-09-22T09:54:17.487Z,98931.28
2022-09-22T09:57:09.236Z,98928.94
2022-09-22T09:59:52.614Z,98934.81
2022-09-22T10:02:25.505Z,98924.56
2022-09-22T10:04:58.738Z,98931.22
2022-09-22T10:10:36.462Z,98926.88
2022-09-22T10:13:41.759Z,98920.31
2022-09-22T10:16:36.272Z,98921.81
2022-09-22T10:19:22.149Z,98916.19
2022-09-22T10:21:52.422Z,98919.34
2022-09-22T10:24:34.716Z,98916.72
2022-09-22T10:27:07.510Z,98910.47
2022-09-22T10:29:42.275Z,98906.06
2022-09-22T10:32:19.435Z,98901.91
2022-09-22T10:34:51.214Z,98896.72
2022-09-22T10:37:27.373Z,98899.50
2022-09-22T10:40:02.810Z,98892.03
2022-09-22T10:42:37.443Z,98889.19
2022-09-22T10:45:10.379Z,98890.09
2022-09-22T10:48:00.460Z,98878.81
2022-09-22T10:50:54.963Z,98893.25
2022-09-22T10:53:37.845Z,98886.41
2022-09-22T10:56:17.115Z,98877.66
2022-09-22T10:59:05.511Z,98880.44
2022-09-22T11:01:52.496Z,98875.72
2022-09-22T11:04:37.329Z,98884.84
2022-09-22T11:07:33.629Z,98884.69
2022-09-22T11:10:37.366Z,98886.94
2022-09-22T11:13:18.565Z,98877.75
2022-09-22T11:16:05.000Z,98870.66
2022-09-22T11:18:49.384Z,98873.66
2022-09-22T11:21:32.906Z,98872.81
2022-09-22T11:24:17.581Z,98860.06
2022-09-22T11:26:52.031Z,98869.38
2022-09-22T11:29:53.734Z,98857.28
2022-09-22T11:32:47.394Z,98860.88
2022-09-22T11:35:47.243Z,98849.69
2022-09-22T11:38:45.299Z,98846.31
2022-09-22T11:41:29.813Z,98849.41
2022-09-22T11:44:16.407Z,98843.16
2022-09-22T11:47:01.534Z,98849.84
2022-09-22T11:49:42.675Z,98838.88
2022-09-22T11:52:24.412Z,98835.28
2022-09-22T11:55:08.339Z,98842.66
2022-09-22T11:57:42.957Z,98833.88
2022-09-22T12:00:17.658Z,98821.66
2022-09-22T12:02:52.211Z,98822.22
2022-09-22T12:05:27.448Z,98821.66
2022-09-22T12:08:03.507Z,98821.44
2022-09-22T12:10:40.044Z,98819.25
2022-09-22T12:13:15.465Z,98818.81
2022-09-22T12:15:53.359Z,98811.31
2022-09-22T12:18:32.445Z,98808.19
2022-09-22T12:21:07.643Z,98810.75
2022-09-22T12:23:45.155Z,98804.47
2022-09-22T12:26:30.274Z,98802.19
2022-09-22T12:29:01.387Z,98805.94
2022-09-22T12:31:40.179Z,98789.44
2022-09-22T12:34:20.775Z,98786.13
2022-09-22T12:36:54.950Z,98789.31
2022-09-22T12:39:27.491Z,98790.75
2022-09-22T12:42:04.075Z,98789.31
2022-09-22T12:44:37.863Z,98789.16
2022-09-22T12:47:11.125Z,98788.22
2022-09-22T12:49:50.939Z,98790.84
2022-09-22T12:52:40.055Z,98776.69
2022-09-22T12:55:22.186Z,98781.84
2022-09-22T12:57:55.019Z,98777.88
2022-09-22T13:00:36.252Z,98768.56
2022-09-22T13:03:52.214Z,98773.28
2022-09-22T13:06:55.776Z,98775.91
2022-09-22T13:09:30.179Z,98777.34
2022-09-22T13:12:38.400Z,98777.88
2022-09-22T13:15:32.116Z,98769.16
2022-09-22T13:18:01.886Z,98767.69
2022-09-22T13:20:35.223Z,98764.91
2022-09-22T13:23:08.368Z,98769.56
2022-09-22T13:25:38.194Z,98759.84
2022-09-22T13:28:17.619Z,98761.06
2022-09-22T13:31:03.383Z,98757.16
2022-09-22T13:33:38.102Z,98756.41
2022-09-22T13:36:11.164Z,98753.47
2022-09-22T13:38:43.931Z,98755.81
2022-09-22T13:41:15.098Z,98758.00
2022-09-22T13:43:48.368Z,98753.81
2022-09-22T13:46:27.518Z,98756.50
2022-09-22T13:49:00.105Z,98750.44
2022-09-22T13:51:29.992Z,98745.78
2022-09-22T13:54:00.436Z,98748.03
2022-09-22T13:56:30.729Z,98737.88
2022-09-22T13:59:03.040Z,98744.53
2022-09-22T14:01:36.017Z,98733.22
2022-09-22T14:04:06.057Z,98734.34
2022-09-22T14:06:37.161Z,98731.78
2022-09-22T14:09:07.445Z,98734.94
2022-09-22T14:11:39.973Z,98731.69
2022-09-22T14:14:23.760Z,98733.38
2022-09-22T14:17:00.296Z,98730.22
2022-09-22T14:19:34.157Z,98728.91
2022-09-22T14:22:07.044Z,98727.28
2022-09-22T14:24:38.310Z,98725.44
2022-09-22T14:27:10.629Z,98719.13
2022-09-22T14:29:42.374Z,98713.66
2022-09-22T14:32:22.785Z,98715.66
2022-09-22T14:34:56.521Z,98708.53
2022-09-22T14:37:32.425Z,98706.16
2022-09-22T14:40:05.581Z,98710.06
2022-09-22T14:42:36.212Z,98704.50
2022-09-22T14:45:21.935Z,98708.16
2022-09-22T14:48:18.098Z,98708.28
2022-09-22T14:50:49.466Z,98709.34
2022-09-22T14:53:23.239Z,98698.22
2022-09-22T14:55:55.001Z,98699.16
2022-09-22T14:58:27.228Z,98698.78
2022-09-22T15:01:11.601Z,98688.97
2022-09-22T15:03:46.609Z,98690.50
2022-09-22T15:06:17.695Z,98698.78
2022-09-22T15:08:53.082Z,98697.81
2022-09-22T15:11:22.992Z,98685.00
2022-09-22T15:13:53.651Z,98678.72
2022-09-22T15:16:39.424Z,98683.25
2022-09-22T15:19:14.128Z,98682.19
2022-09-22T15:21:49.108Z,98681.66
2022-09-22T15:24:26.328Z,98675.28
2022-09-22T15:27:00.273Z,98675.56
2022-09-22T15:29:32.502Z,98680.06
2022-09-22T15:32:04.420Z,98670.50
2022-09-22T15:34:38.344Z,98665.78
2022-09-22T15:37:08.243Z,98656.00
2022-09-22T15:39:37.984Z,98676.78
2022-09-22T15:42:10.333Z,98667.56
2022-09-22T15:44:40.616Z,98664.47
2022-09-22T15:47:16.774Z,98666.28
2022-09-22T15:49:51.313Z,98663.75
2022-09-22T15:52:21.376Z,98662.59
2022-09-22T15:54:51.249Z,98666.56
2022-09-22T15:57:20.962Z,98659.44
2022-09-22T15:59:52.427Z,98655.88
2022-09-22T16:02:22.348Z,98654.34
2022-09-22T16:04:55.766Z,98653.59
2022-09-22T16:07:25.550Z,98658.44
2022-09-22T16:09:55.378Z,98660.75
2022-09-22T16:12:25.651Z,98660.19
2022-09-22T16:14:55.329Z,98662.19
2022-09-22T16:17:25.309Z,98654.81
2022-09-22T16:19:58.839Z,98656.75
2022-09-22T16:22:28.973Z,98663.56
2022-09-22T16:24:58.630Z,98662.81
2022-09-22T16:27:30.055Z,98661.22
2022-09-22T16:29:59.968Z,98663.59
2022-09-22T16:32:30.858Z,98657.38
2022-09-22T16:35:03.153Z,98660.53
2022-09-22T16:37:32.913Z,98666.16
2022-09-22T16:40:02.939Z,98659.09
2022-09-22T16:42:32.669Z,98666.94
2022-09-22T16:45:04.029Z,98670.50
2022-09-22T16:47:33.667Z,98665.81
2022-09-22T16:50:07.576Z,98674.13
2022-09-22T16:52:37.641Z,98664.31
2022-09-22T16:55:08.218Z,98665.09
2022-09-22T16:57:37.847Z,98668.72
2022-09-22T17:00:09.797Z,98671.88
2022-09-22T17:02:39.745Z,98668.75
2022-09-22T17:05:13.049Z,98671.88
2022-09-22T17:07:46.346Z,98669.59
2022-09-22T17:10:16.402Z,98671.19
2022-09-22T17:12:46.074Z,98668.88
2022-09-22T17:15:16.701Z,98672.84
2022-09-22T17:17:46.499Z,98662.22
2022-09-22T17:20:18.871Z,98665.34
2022-09-22T17:22:48.818Z,98679.84
2022-09-22T17:25:19.014Z,98668.88
2022-09-22T17:27:49.136Z,98666.47
2022-09-22T17:30:19.124Z,98666.44
2022-09-22T17:32:49.067Z,98675.06
2022-09-22T17:35:21.385Z,98673.88
2022-09-22T17:37:53.564Z,98677.78
2022-09-22T17:40:23.352Z,98667.19
2022-09-22T17:42:53.016Z,98674.25
2022-09-22T17:45:23.029Z,98674.16
2022-09-22T17:48:05.133Z,98676.13
2022-09-22T17:50:49.921Z,98681.19
2022-09-22T17:53:32.058Z,98670.19
2022-09-22T17:56:05.263Z,98676.44
2022-09-22T17:58:35.237Z,98681.09
2022-09-22T18:01:05.192Z,98684.19
2022-09-22T18:03:35.653Z,98681.03
2022-09-22T18:06:15.020Z,98682.94
2022-09-22T18:08:45.453Z,98681.75
2022-09-22T18:11:15.623Z,98684.00
2022-09-22T18:13:45.260Z,98684.78
2022-09-22T18:16:22.999Z,98685.97
2022-09-22T18:18:52.723Z,98676.09
2022-09-22T18:21:25.171Z,98680.34
2022-09-22T18:23:54.828Z,98683.22
2022-09-22T18:26:27.748Z,98682.44
2022-09-22T18:28:58.044Z,98686.38
2022-09-22T18:31:28.471Z,98681.38
2022-09-22T18:33:58.417Z,98679.84
2022-09-22T18:36:30.879Z,98679.28
2022-09-22T18:39:00.786Z,98681.31
2022-09-22T18:41:32.133Z,98678.50
2022-09-22T18:44:04.762Z,98682.44
2022-09-22T18:46:36.524Z,98690.25
2022-09-22T18:49:09.539Z,98688.66
2022-09-22T18:51:45.233Z,98696.63
2022-09-22T18:54:15.570Z,98696.63
2022-09-22T18:56:47.916Z,98697.44
2022-09-22T18:59:19.815Z,98692.66
2022-09-22T19:01:50.350Z,98708.22
2022-09-22T19:04:22.667Z,98703.66
2022-09-22T19:07:09.217Z,98701.16
2022-09-22T19:09:39.338Z,98703.50
2022-09-22T19:12:10.794Z,98703.97
2022-09-22T19:14:42.285Z,98698.34
2022-09-22T19:17:13.507Z,98698.22
2022-09-22T19:19:46.040Z,98697.22
2022-09-22T19:22:19.354Z,98705.97
2022-09-22T19:24:49.128Z,98703.81
2022-09-22T19:27:22.907Z,98701.56
2022-09-22T19:29:52.782Z,98702.78
2022-09-22T19:32:22.432Z,98698.84
2022-09-22T19:34:54.939Z,98701.94
2022-09-22T19:37:29.366Z,98699.88
2022-09-22T19:39:59.290Z,98702.22
2022-09-22T19:42:28.971Z,98701.81
2022-09-22T19:44:59.385Z,98706.16
2022-09-22T19:47:29.219Z,98701.03
2022-09-22T19:49:59.423Z,98691.63
2022-09-22T19:52:31.774Z,98692.78
2022-09-22T19:55:01.566Z,98705.34
2022-09-22T19:57:31.955Z,98701.25
2022-09-22T20:00:01.894Z,98701.47
2022-09-22T20:02:31.704Z,98697.91
2022-09-22T20:05:01.313Z,98690.69
2022-09-22T20:07:33.728Z,98695.63
2022-09-22T20:10:03.350Z,98690.69
2022-09-22T20:12:33.094Z,98692.47
2022-09-22T20:15:02.837Z,98690.56
2022-09-22T20:17:32.544Z,98698.28
2022-09-22T20:20:02.277Z,98680.78
2022-09-22T20:22:38.378Z,98693.31
2022-09-22T20:25:09.054Z,98685.97
2022-09-22T20:27:40.213Z,98687.72
2022-09-22T20:30:11.346Z,98685.97
2022-09-22T20:32:41.154Z,98685.31
2022-09-22T20:35:13.541Z,98682.91
2022-09-22T20:37:46.741Z,98675.53
2022-09-22T20:40:18.721Z,98669.28
2022-09-22T20:42:49.135Z,98682.09
2022-09-22T20:45:21.009Z,98673.78
2022-09-22T20:47:51.048Z,98679.53
2022-09-22T20:50:21.326Z,98682.91
2022-09-22T20:52:53.816Z,98676.25
2022-09-22T20:55:23.491Z,98677.75
2022-09-22T20:57:53.220Z,98680.69
2022-09-22T21:00:23.042Z,98683.44
2022-09-22T21:02:53.709Z,98676.25
2022-09-22T21:05:23.466Z,98686.94
2022-09-22T21:08:15.870Z,98673.13
2022-09-22T21:10:42.955Z,98673.25
2022-09-22T21:13:12.620Z,98683.91
2022-09-22T21:15:42.397Z,98682.88
2022-09-22T21:18:12.084Z,98677.47
2022-09-22T21:20:43.163Z,98680.44
2022-09-22T21:23:15.424Z,98676.50
2022-09-22T21:25:45.169Z,98680.03
2022-09-22T21:28:14.843Z,98681.94
2022-09-22T21:30:44.585Z,98679.25
2022-09-22T21:33:14.333Z,98680.75
2022-09-22T21:35:43.984Z,98673.66
2022-09-22T21:38:16.281Z,98668.72
2022-09-22T21:40:45.931Z,98672.94
2022-09-22T21:43:15.668Z,98674.06
2022-09-22T21:45:45.456Z,98672.69
2022-09-22T21:48:15.166Z,98674.97
2022-09-22T21:50:44.845Z,98666.47
2022-09-22T21:53:17.090Z,98673.34
2022-09-22T21:55:46.783Z,98663.97
2022-09-22T21:58:16.545Z,98666.81
2022-09-22T22:00:52.128Z,98668.59
2022-09-22T22:03:34.379Z,98661.00
2022-09-22T22:06:06.052Z,98660.69
2022-09-22T22:08:42.643Z,98658.75
2022-09-22T22:11:14.464Z,98650.38
2022-09-22T22:13:45.395Z,98650.72
2022-09-22T22:16:15.558Z,98649.19
2022-09-22T22:18:45.563Z,98658.91
2022-09-22T22:21:17.345Z,98652.16
2022-09-22T22:23:51.543Z,98643.44
2022-09-22T22:26:23.697Z,98642.56
2022-09-22T22:28:54.805Z,98648.13
2022-09-22T22:31:26.340Z,98644.06
2022-09-22T22:33:56.883Z,98639.38
2022-09-22T22:36:26.615Z,98642.97
2022-09-22T22:38:58.995Z,98643.84
2022-09-22T22:41:30.577Z,98647.56
2022-09-22T22:44:01.991Z,98644.41
2022-09-22T22:46:32.422Z,98637.13
2022-09-22T22:49:02.441Z,98634.06
2022-09-22T22:51:32.276Z,98624.53
2022-09-22T22:54:05.012Z,98625.84
2022-09-22T22:56:35.113Z,98627.91
2022-09-22T22:59:04.913Z,98625.59
2022-09-22T23:01:35.405Z,98624.81
2022-09-22T23:04:06.927Z,98620.09
2022-09-22T23:06:39.110Z,98623.81
2022-09-22T23:09:15.107Z,98611.47
2022-09-22T23:11:46.615Z,98616.63
2022-09-22T23:14:17.172Z,98620.06
2022-09-22T23:16:49.644Z,98610.91
2022-09-22T23:19:20.886Z,98612.50
2022-09-22T23:21:51.616Z,98607.31
2022-09-22T23:24:23.995Z,98616.53
2022-09-22T23:26:54.530Z,98611.78
2022-09-22T23:29:24.207Z,98610.66
2022-09-22T23:31:53.862Z,98611.22
2022-09-22T23:34:24.719Z,98608.50
2022-09-22T23:36:54.383Z,98603.97
2022-09-22T23:39:26.977Z,98605.78
2022-09-22T23:41:56.690Z,98604.00
2022-09-22T23:44:26.429Z,98603.06
2022-09-22T23:46:56.405Z,98601.56
2022-09-22T23:49:26.051Z,98597.84
2022-09-22T23:51:55.757Z,98597.94
2022-09-22T23:54:28.238Z,98597.00
2022-09-22T23:56:57.956Z,98596.63
2022-09-22T23:59:27.633Z,98596.03
